Independence, Ohio
Current Conditions -  °F | °C
As of 8:51 AM on Friday 31 Oct 2014 (Local Time) from KCLE Reporting Station
Overcast Overcast  
Wind Chill: 40°   Ceiling: 4500
Heat Index: 44°   Visibility: 10mi
Dew Point: 36°   Wind: 7mph
Humidity: 73%   Direction: 180°S
Pressure: 29.95"   Gusts: NA
Location:  41.38°N, 81.64°W
Report Text: KCLE 311251Z 18006KT 10SM BKN045 OVC060 07/02 A2995 RMK AO2 SLP148 T00670022 $
Loading
Personal Weather Stations






























Interactive Weather Map
Tropical Storm Tracking
New forecast layout! Learn more

10-Day Weather Forecast

Advertisements
Track Severe Weather on mobile